Time;durP1;ratioP1;P1;durP2;ratioP2;P2;SDS_P1;SDS_P2;PMS_P1;PMS_P2;Temp;Humidity;BMP_temperature;BMP_pressure;BME280_temperature;BME280_humidity;BME280_pressure;Samples;Min_cycle;Max_cycle;Signal;HPM_P1;HPM_P2
2022/04/21 00:00:29;;;;;;;7.87;7.30;;;;;;;;;;5101864;28;20450;-77
2022/04/21 00:02:56;;;;;;;8.27;7.67;;;;;;;;;;5098284;28;20440;-79
2022/04/21 00:05:23;;;;;;;11.87;7.60;;;;;;;;;;5099226;28;20480;-78
2022/04/21 00:07:50;;;;;;;8.17;7.50;;;;;;;;;;5095375;28;20432;-79
2022/04/21 00:10:19;;;;;;;8.87;8.07;;;;;;;;;;5098638;28;20474;-78
2022/04/21 00:12:46;;;;;;;9.23;8.27;;;;;;;;;;5100237;28;20439;-78
2022/04/21 00:15:13;;;;;;;9.00;8.30;;;;;;;;;;5098977;28;20467;-78
2022/04/21 00:17:40;;;;;;;9.03;8.40;;;;;;;;;;5098425;28;20440;-77
2022/04/21 00:20:08;;;;;;;8.93;8.13;;;;;;;;;;5097018;28;20420;-77
2022/04/21 00:25:21;;;;;;;8.40;7.70;;;;;;;;;;5097019;28;20489;-77
2022/04/21 00:27:48;;;;;;;8.80;8.10;;;;;;;;;;5096284;28;20456;-78
2022/04/21 00:30:18;;;;;;;8.77;8.07;;;;;;;;;;5094511;28;20443;-79
2022/04/21 00:32:45;;;;;;;9.17;8.40;;;;;;;;;;5095983;28;20439;-79
2022/04/21 00:35:12;;;;;;;8.77;8.07;;;;;;;;;;5098300;28;20471;-79
2022/04/21 00:37:47;;;;;;;8.83;8.13;;;;;;;;;;5095826;28;20443;-78
2022/04/21 00:40:15;;;;;;;9.30;8.60;;;;;;;;;;5098193;28;20434;-80
2022/04/21 00:42:44;;;;;;;9.03;8.27;;;;;;;;;;5095136;28;21016;-80
2022/04/21 00:45:11;;;;;;;9.57;8.67;;;;;;;;;;5098267;28;20464;-77
2022/04/21 00:47:40;;;;;;;9.87;8.93;;;;;;;;;;5097167;28;20553;-80
2022/04/21 00:50:09;;;;;;;9.00;8.20;;;;;;;;;;5098701;28;20534;-78
2022/04/21 00:52:36;;;;;;;8.13;7.53;;;;;;;;;;5097086;28;20501;-78
2022/04/21 00:55:04;;;;;;;9.23;8.43;;;;;;;;;;5097758;28;20460;-78
2022/04/21 00:57:31;;;;;;;8.97;8.20;;;;;;;;;;5099441;28;20462;-79
2022/04/21 00:59:59;;;;;;;8.80;8.10;;;;;;;;;;5098049;28;20841;-78
2022/04/21 01:05:12;;;;;;;9.37;8.57;;;;;;;;;;5097610;28;20435;-77
2022/04/21 01:07:39;;;;;;;8.63;8.00;;;;;;;;;;5098209;28;20440;-79
2022/04/21 01:10:06;;;;;;;9.13;8.27;;;;;;;;;;5095081;28;20460;-79
2022/04/21 01:12:33;;;;;;;8.70;8.00;;;;;;;;;;5096977;28;20489;-79
2022/04/21 01:15:02;;;;;;;9.70;8.93;;;;;;;;;;5095524;28;20452;-78
2022/04/21 01:17:32;;;;;;;9.23;8.53;;;;;;;;;;5096233;28;20440;-78
2022/04/21 01:19:59;;;;;;;8.80;8.10;;;;;;;;;;5097283;28;20436;-78
2022/04/21 01:22:29;;;;;;;9.27;8.30;;;;;;;;;;5094129;28;20447;-77
2022/04/21 01:24:56;;;;;;;8.20;7.60;;;;;;;;;;5098725;28;20455;-78
2022/04/21 01:27:24;;;;;;;9.10;8.30;;;;;;;;;;5096472;28;20479;-78
2022/04/21 01:29:51;;;;;;;9.03;8.33;;;;;;;;;;5097384;28;20466;-79
2022/04/21 01:32:18;;;;;;;10.17;9.10;;;;;;;;;;5096971;28;20428;-78
2022/04/21 01:34:45;;;;;;;10.00;8.60;;;;;;;;;;5096043;28;20932;-78
2022/04/21 01:42:43;;;;;;;9.80;9.00;;;;;;;;;;5094853;28;20419;-79
2022/04/21 01:45:10;;;;;;;9.87;8.87;;;;;;;;;;5095734;28;20591;-78
2022/04/21 01:47:37;;;;;;;10.17;8.70;;;;;;;;;;5096060;28;20478;-79
2022/04/21 01:50:07;;;;;;;10.17;9.37;;;;;;;;;;5096810;28;20450;-79
2022/04/21 01:52:35;;;;;;;9.90;9.10;;;;;;;;;;5098932;28;20462;-79
2022/04/21 01:55:03;;;;;;;11.27;10.00;;;;;;;;;;5100646;28;20468;-79
2022/04/21 01:57:30;;;;;;;10.20;9.20;;;;;;;;;;5100587;28;20440;-79
2022/04/21 01:59:57;;;;;;;10.30;9.50;;;;;;;;;;5100963;28;20440;-78
2022/04/21 02:02:24;;;;;;;11.17;10.27;;;;;;;;;;5100555;28;20849;-77
2022/04/21 02:04:51;;;;;;;10.77;9.97;;;;;;;;;;5101230;28;20443;-79
2022/04/21 02:07:18;;;;;;;10.10;9.20;;;;;;;;;;5100878;28;20475;-79
2022/04/21 02:09:45;;;;;;;10.73;9.80;;;;;;;;;;5100130;28;20459;-79
2022/04/21 02:12:14;;;;;;;11.07;10.17;;;;;;;;;;5099182;28;20448;-78
2022/04/21 02:14:41;;;;;;;11.23;10.13;;;;;;;;;;5099368;28;20447;-79
2022/04/21 02:17:08;;;;;;;11.30;10.20;;;;;;;;;;5098195;28;20432;-79
2022/04/21 02:19:36;;;;;;;11.70;10.70;;;;;;;;;;5098807;28;20458;-78
2022/04/21 02:22:03;;;;;;;10.93;10.10;;;;;;;;;;5096719;28;20454;-76
2022/04/21 02:24:30;;;;;;;12.50;11.40;;;;;;;;;;5097246;28;20454;-79
2022/04/21 02:26:57;;;;;;;11.50;10.60;;;;;;;;;;5098127;28;20524;-77
2022/04/21 02:29:25;;;;;;;11.00;10.20;;;;;;;;;;5099322;28;20437;-78
2022/04/21 02:31:52;;;;;;;10.80;9.90;;;;;;;;;;5099444;28;20436;-79
2022/04/21 02:34:19;;;;;;;11.10;10.00;;;;;;;;;;5098195;28;20450;-78
2022/04/21 02:36:46;;;;;;;12.03;11.13;;;;;;;;;;5099758;28;20460;-77
2022/04/21 02:39:13;;;;;;;12.37;11.20;;;;;;;;;;5098233;28;20443;-78
2022/04/21 02:41:40;;;;;;;12.27;11.27;;;;;;;;;;5100353;28;20431;-78
2022/04/21 02:44:07;;;;;;;11.87;10.80;;;;;;;;;;5101953;28;20451;-79
2022/04/21 02:46:36;;;;;;;11.77;10.73;;;;;;;;;;5100520;28;20497;-77
2022/04/21 02:49:03;;;;;;;13.30;11.00;;;;;;;;;;5099465;28;20444;-79
2022/04/21 02:51:31;;;;;;;11.30;10.47;;;;;;;;;;5099086;28;20440;-79
2022/04/21 02:59:28;;;;;;;11.90;10.90;;;;;;;;;;5097403;28;20446;-78
2022/04/21 03:01:57;;;;;;;13.50;11.50;;;;;;;;;;5097907;28;20440;-77
2022/04/21 03:04:24;;;;;;;13.63;12.43;;;;;;;;;;5099213;28;20455;-78
2022/04/21 03:06:51;;;;;;;12.90;11.80;;;;;;;;;;5099959;28;20486;-79
2022/04/21 03:09:18;;;;;;;13.50;12.40;;;;;;;;;;5099758;28;20458;-78
2022/04/21 03:11:48;;;;;;;13.27;12.17;;;;;;;;;;5100217;28;20455;-77
2022/04/21 03:14:18;;;;;;;13.10;11.90;;;;;;;;;;5101723;28;20444;-79
2022/04/21 03:16:45;;;;;;;12.80;11.80;;;;;;;;;;5098931;28;20499;-79
2022/04/21 03:19:13;;;;;;;13.43;12.43;;;;;;;;;;5101542;28;20493;-77
2022/04/21 03:24:25;;;;;;;13.07;11.77;;;;;;;;;;5097835;28;20939;-78
2022/04/21 03:26:53;;;;;;;14.07;12.87;;;;;;;;;;5098001;28;20482;-78
2022/04/21 03:29:20;;;;;;;13.43;12.43;;;;;;;;;;5097136;28;20439;-78
2022/04/21 03:31:48;;;;;;;13.50;12.20;;;;;;;;;;5098609;28;20462;-79
2022/04/21 03:34:17;;;;;;;13.47;12.37;;;;;;;;;;5096433;28;20526;-79
2022/04/21 03:36:46;;;;;;;13.80;12.70;;;;;;;;;;5096869;28;20464;-79
2022/04/21 03:39:13;;;;;;;13.57;12.37;;;;;;;;;;5098582;28;20965;-79
2022/04/21 03:41:40;;;;;;;12.73;11.67;;;;;;;;;;5099324;28;20939;-79
2022/04/21 03:44:07;;;;;;;13.13;11.97;;;;;;;;;;5096801;28;20979;-78
2022/04/21 03:46:35;;;;;;;14.57;12.97;;;;;;;;;;5092204;28;20486;-78
2022/04/21 03:49:02;;;;;;;13.37;12.10;;;;;;;;;;5094512;28;20435;-79
2022/04/21 03:51:31;;;;;;;13.50;12.40;;;;;;;;;;5077567;28;20448;-78
2022/04/21 03:53:58;;;;;;;12.93;11.80;;;;;;;;;;5095018;28;20855;-79
2022/04/21 03:56:26;;;;;;;14.17;12.87;;;;;;;;;;5076049;28;20465;-77
2022/04/21 03:58:53;;;;;;;13.33;12.23;;;;;;;;;;5090465;28;20507;-76
2022/04/21 04:01:20;;;;;;;14.70;13.50;;;;;;;;;;5097287;28;20448;-78
2022/04/21 04:03:48;;;;;;;13.30;12.00;;;;;;;;;;5104123;28;20453;-77
2022/04/21 04:11:46;;;;;;;15.13;13.63;;;;;;;;;;5088749;28;20437;-76
2022/04/21 04:14:13;;;;;;;16.17;13.60;;;;;;;;;;5092371;28;20474;-78
2022/04/21 04:16:40;;;;;;;15.03;13.77;;;;;;;;;;5094072;28;20482;-78
2022/04/21 04:19:08;;;;;;;17.33;13.47;;;;;;;;;;5093287;28;20517;-77
2022/04/21 04:21:35;;;;;;;15.17;13.87;;;;;;;;;;5093041;28;20801;-79
2022/04/21 04:24:04;;;;;;;15.30;13.77;;;;;;;;;;5095524;28;20466;-77
2022/04/21 04:26:32;;;;;;;15.90;14.50;;;;;;;;;;5093689;28;20513;-77
2022/04/21 04:28:59;;;;;;;15.20;13.90;;;;;;;;;;5092786;28;20803;-78
2022/04/21 04:31:26;;;;;;;16.27;14.93;;;;;;;;;;5095016;28;20458;-78
2022/04/21 04:33:53;;;;;;;16.27;15.00;;;;;;;;;;5096809;28;20442;-77
2022/04/21 04:36:21;;;;;;;15.60;14.20;;;;;;;;;;5096410;28;20467;-77
2022/04/21 04:38:49;;;;;;;16.97;15.57;;;;;;;;;;5086029;28;20483;-80
2022/04/21 04:44:02;;;;;;;15.60;14.37;;;;;;;;;;5099654;28;20429;-77
2022/04/21 04:46:34;;;;;;;16.30;14.93;;;;;;;;;;5101553;28;20449;-76
2022/04/21 04:49:01;;;;;;;16.13;14.70;;;;;;;;;;5101676;28;20522;-79
2022/04/21 04:51:29;;;;;;;16.50;14.80;;;;;;;;;;5100504;28;20447;-77
2022/04/21 04:53:56;;;;;;;16.33;15.03;;;;;;;;;;5094928;28;20439;-78
2022/04/21 04:56:26;;;;;;;15.93;14.63;;;;;;;;;;5095628;28;20451;-79
2022/04/21 04:58:54;;;;;;;17.13;15.67;;;;;;;;;;5092661;28;20454;-78
2022/04/21 05:01:26;;;;;;;17.60;15.90;;;;;;;;;;5094166;28;20432;-78
2022/04/21 05:03:54;;;;;;;16.60;15.10;;;;;;;;;;5092627;28;20542;-77
2022/04/21 05:06:21;;;;;;;20.23;16.00;;;;;;;;;;5092863;28;20452;-77
2022/04/21 05:08:48;;;;;;;16.53;15.03;;;;;;;;;;5092508;28;20974;-76
2022/04/21 05:11:16;;;;;;;16.67;14.90;;;;;;;;;;5094072;28;20453;-78
2022/04/21 05:13:44;;;;;;;16.27;14.83;;;;;;;;;;5093636;28;20856;-78
2022/04/21 05:16:11;;;;;;;17.67;16.10;;;;;;;;;;5092982;28;20969;-78
2022/04/21 05:18:39;;;;;;;16.00;14.60;;;;;;;;;;5093628;28;20440;-77
2022/04/21 05:21:06;;;;;;;18.60;16.67;;;;;;;;;;5094009;28;20453;-78
2022/04/21 05:23:35;;;;;;;17.83;16.03;;;;;;;;;;5093906;28;20454;-78
2022/04/21 05:26:02;;;;;;;17.63;16.03;;;;;;;;;;5095088;28;20494;-80
2022/04/21 05:28:30;;;;;;;18.53;16.83;;;;;;;;;;5099164;28;20485;-77
2022/04/21 05:30:58;;;;;;;17.77;16.17;;;;;;;;;;5099082;28;20440;-78
2022/04/21 05:33:26;;;;;;;16.97;15.27;;;;;;;;;;5094162;28;20459;-80
2022/04/21 05:35:54;;;;;;;17.80;16.17;;;;;;;;;;5093521;28;20453;-78
2022/04/21 05:38:22;;;;;;;17.27;15.67;;;;;;;;;;5097727;28;20516;-80
2022/04/21 05:40:49;;;;;;;18.37;16.77;;;;;;;;;;5097245;28;20423;-78
2022/04/21 05:43:18;;;;;;;19.37;17.03;;;;;;;;;;5098808;28;20443;-78
2022/04/21 05:45:46;;;;;;;19.23;17.50;;;;;;;;;;5098861;28;20529;-77
2022/04/21 05:48:15;;;;;;;20.33;18.63;;;;;;;;;;5099847;28;20482;-77
2022/04/21 05:50:44;;;;;;;19.00;17.10;;;;;;;;;;5098216;28;20459;-77
2022/04/21 05:53:12;;;;;;;19.00;17.20;;;;;;;;;;5095141;28;20443;-78
2022/04/21 05:55:39;;;;;;;18.53;16.80;;;;;;;;;;5090593;28;20460;-78
2022/04/21 05:58:06;;;;;;;17.30;15.80;;;;;;;;;;5079743;28;20455;-77
2022/04/21 06:00:33;;;;;;;18.83;16.97;;;;;;;;;;5080281;28;20448;-77
2022/04/21 06:03:00;;;;;;;18.00;16.50;;;;;;;;;;5078776;28;20448;-76
2022/04/21 06:05:29;;;;;;;18.53;16.83;;;;;;;;;;5079777;28;20471;-79
2022/04/21 06:07:56;;;;;;;19.57;17.77;;;;;;;;;;5098133;28;20484;-78
2022/04/21 06:10:23;;;;;;;18.50;16.90;;;;;;;;;;5104961;28;20463;-77
2022/04/21 06:12:50;;;;;;;19.30;17.50;;;;;;;;;;5104094;28;20431;-78
2022/04/21 06:15:17;;;;;;;18.43;16.83;;;;;;;;;;5105088;28;20796;-77
2022/04/21 06:17:45;;;;;;;18.23;16.47;;;;;;;;;;5107019;28;20434;-77
2022/04/21 06:20:12;;;;;;;17.93;16.47;;;;;;;;;;5107544;28;20448;-79
2022/04/21 06:22:41;;;;;;;18.00;16.40;;;;;;;;;;5109279;28;20946;-77
2022/04/21 06:25:08;;;;;;;19.70;16.60;;;;;;;;;;5104455;28;20467;-78
2022/04/21 06:27:35;;;;;;;20.20;18.23;;;;;;;;;;5099498;28;20467;-77
2022/04/21 06:30:02;;;;;;;18.40;16.90;;;;;;;;;;5097359;28;20444;-78
2022/04/21 06:32:30;;;;;;;18.50;16.87;;;;;;;;;;5098809;28;20448;-78
2022/04/21 06:34:57;;;;;;;19.13;17.43;;;;;;;;;;5097029;28;20428;-77
2022/04/21 06:37:24;;;;;;;18.30;16.80;;;;;;;;;;5097307;28;20494;-78
2022/04/21 06:39:53;;;;;;;19.47;17.77;;;;;;;;;;5096237;28;20959;-79
2022/04/21 06:42:20;;;;;;;19.07;17.27;;;;;;;;;;5099008;28;20444;-79
2022/04/21 06:50:16;;;;;;;18.37;16.57;;;;;;;;;;5096447;28;20416;-79
2022/04/21 06:52:43;;;;;;;18.33;16.50;;;;;;;;;;5094688;28;20428;-78
2022/04/21 06:55:12;;;;;;;17.90;16.30;;;;;;;;;;5094948;28;20468;-79
2022/04/21 06:57:39;;;;;;;19.40;17.60;;;;;;;;;;5096106;28;20653;-80
2022/04/21 07:00:06;;;;;;;18.43;16.83;;;;;;;;;;5097634;28;20565;-79
2022/04/21 07:02:37;;;;;;;17.93;16.33;;;;;;;;;;5095824;28;20962;-79
2022/04/21 07:05:05;;;;;;;18.77;17.27;;;;;;;;;;5102315;28;20531;-77
2022/04/21 07:07:32;;;;;;;18.27;16.47;;;;;;;;;;5107728;28;20472;-78
2022/04/21 07:10:00;;;;;;;18.57;16.87;;;;;;;;;;5099943;28;20486;-76
2022/04/21 07:12:29;;;;;;;19.27;17.37;;;;;;;;;;5096877;28;20459;-80
2022/04/21 07:14:57;;;;;;;17.87;16.27;;;;;;;;;;5096597;28;20432;-78
2022/04/21 07:17:24;;;;;;;19.40;17.50;;;;;;;;;;5096431;28;20505;-77
2022/04/21 07:19:51;;;;;;;19.73;18.03;;;;;;;;;;5097241;28;20797;-79
2022/04/21 07:22:20;;;;;;;18.47;16.97;;;;;;;;;;5097198;28;20432;-77
2022/04/21 07:24:47;;;;;;;18.63;16.90;;;;;;;;;;5098680;28;20479;-78
2022/04/21 07:27:14;;;;;;;21.00;18.63;;;;;;;;;;5100591;28;20444;-77
2022/04/21 07:29:43;;;;;;;18.97;17.23;;;;;;;;;;5102085;28;20512;-77
2022/04/21 07:32:10;;;;;;;18.57;16.80;;;;;;;;;;5101917;28;20524;-79
2022/04/21 07:34:37;;;;;;;17.40;15.90;;;;;;;;;;5100146;28;20466;-78
2022/04/21 07:37:05;;;;;;;19.57;17.67;;;;;;;;;;5097650;28;20442;-77
2022/04/21 07:39:32;;;;;;;17.07;15.47;;;;;;;;;;5102848;28;20447;-78
2022/04/21 07:41:59;;;;;;;17.73;16.20;;;;;;;;;;5102177;28;20443;-77
2022/04/21 07:44:27;;;;;;;17.93;16.40;;;;;;;;;;5102650;28;20444;-78
2022/04/21 07:46:55;;;;;;;18.73;17.13;;;;;;;;;;5105194;28;20530;-77
2022/04/21 07:54:53;;;;;;;17.50;16.00;;;;;;;;;;5080740;28;20429;-78
2022/04/21 07:57:20;;;;;;;19.60;17.70;;;;;;;;;;5084117;28;20440;-77
2022/04/21 07:59:47;;;;;;;18.03;16.33;;;;;;;;;;5078934;28;20512;-80
2022/04/21 08:02:16;;;;;;;17.97;16.37;;;;;;;;;;5074368;28;20476;-78
2022/04/21 08:04:43;;;;;;;17.53;15.90;;;;;;;;;;5073372;28;20825;-78
2022/04/21 08:07:10;;;;;;;17.13;15.63;;;;;;;;;;5088944;28;20824;-78
2022/04/21 08:09:37;;;;;;;18.13;16.43;;;;;;;;;;5094631;28;20557;-79
2022/04/21 08:12:05;;;;;;;16.37;14.97;;;;;;;;;;5107221;28;20523;-76
2022/04/21 08:14:32;;;;;;;17.10;15.37;;;;;;;;;;5115157;28;20463;-78
2022/04/21 08:16:59;;;;;;;17.70;16.20;;;;;;;;;;5115331;28;20455;-75
2022/04/21 08:19:27;;;;;;;17.47;15.97;;;;;;;;;;5107179;28;20428;-78
2022/04/21 08:21:54;;;;;;;17.53;15.87;;;;;;;;;;5098641;28;20503;-78
2022/04/21 08:32:40;;;;;;;17.43;15.60;;;;;;;;;;5062281;28;20935;-80
2022/04/21 08:35:13;;;;;;;16.67;15.00;;;;;;;;;;5096837;28;20455;-79
2022/04/21 08:37:40;;;;;;;14.57;13.30;;;;;;;;;;5098569;28;20473;-79
2022/04/21 08:40:08;;;;;;;16.00;14.60;;;;;;;;;;5097546;28;20440;-79
2022/04/21 08:42:37;;;;;;;15.00;13.43;;;;;;;;;;5097831;28;20444;-78
2022/04/21 08:45:05;;;;;;;14.83;13.53;;;;;;;;;;5099189;28;20464;-80
2022/04/21 08:47:32;;;;;;;13.93;12.83;;;;;;;;;;5096569;28;20463;-79
2022/04/21 08:50:03;;;;;;;15.93;14.63;;;;;;;;;;5095933;28;20822;-78
2022/04/21 08:52:32;;;;;;;15.57;14.27;;;;;;;;;;5095547;28;20539;-79
2022/04/21 08:54:59;;;;;;;14.97;13.60;;;;;;;;;;5097951;28;20475;-79
2022/04/21 08:57:26;;;;;;;15.10;13.90;;;;;;;;;;5100099;28;20450;-79
2022/04/21 08:59:54;;;;;;;14.40;13.30;;;;;;;;;;5098066;28;20436;-79
2022/04/21 09:02:21;;;;;;;15.23;13.90;;;;;;;;;;5096044;28;20483;-79
2022/04/21 09:04:48;;;;;;;14.90;13.80;;;;;;;;;;5097981;28;20432;-77
2022/04/21 09:07:16;;;;;;;13.80;12.73;;;;;;;;;;5105924;28;20440;-78
2022/04/21 09:10:01;;;;;;;13.90;12.80;;;;;;;;;;5103206;28;20472;-79
2022/04/21 09:12:28;;;;;;;13.83;12.77;;;;;;;;;;5096304;28;20444;-78
2022/04/21 09:14:55;;;;;;;14.43;13.23;;;;;;;;;;5097509;28;20455;-77
2022/04/21 09:17:22;;;;;;;14.10;13.00;;;;;;;;;;5098794;28;20424;-78
2022/04/21 09:19:56;;;;;;;13.43;12.37;;;;;;;;;;5100070;28;20448;-78
2022/04/21 09:22:23;;;;;;;14.20;12.90;;;;;;;;;;5095087;28;20473;-79
2022/04/21 09:24:52;;;;;;;13.60;12.50;;;;;;;;;;5093327;28;20815;-79
2022/04/21 09:27:20;;;;;;;13.10;12.00;;;;;;;;;;5093649;28;20440;-78
2022/04/21 09:29:47;;;;;;;13.43;12.43;;;;;;;;;;5094790;28;21002;-77
2022/04/21 09:32:17;;;;;;;13.40;12.30;;;;;;;;;;5094811;28;20554;-78
2022/04/21 09:34:50;;;;;;;13.03;11.93;;;;;;;;;;5094797;28;20843;-78
2022/04/21 09:37:20;;;;;;;12.83;11.83;;;;;;;;;;5093974;28;20505;-78
2022/04/21 09:39:51;;;;;;;13.37;12.17;;;;;;;;;;5095010;28;20427;-78
2022/04/21 09:42:25;;;;;;;12.43;11.33;;;;;;;;;;5094436;28;20935;-79
2022/04/21 09:47:37;;;;;;;11.00;10.20;;;;;;;;;;5093742;28;20431;-78
2022/04/21 09:50:14;;;;;;;12.30;11.20;;;;;;;;;;5095040;28;20552;-78
2022/04/21 09:52:47;;;;;;;11.90;10.90;;;;;;;;;;5095290;28;20542;-80
2022/04/21 09:55:21;;;;;;;12.20;11.20;;;;;;;;;;5096161;28;20959;-78
2022/04/21 09:57:53;;;;;;;11.13;10.13;;;;;;;;;;5094407;28;20586;-79
2022/04/21 10:00:22;;;;;;;11.37;10.53;;;;;;;;;;5094775;28;20943;-79
2022/04/21 10:02:50;;;;;;;13.60;12.30;;;;;;;;;;5093304;28;20428;-78
2022/04/21 10:05:18;;;;;;;12.90;11.60;;;;;;;;;;5094147;28;20460;-79
2022/04/21 10:07:46;;;;;;;11.47;10.63;;;;;;;;;;5095060;28;20459;-78
2022/04/21 10:10:13;;;;;;;10.83;9.93;;;;;;;;;;5094725;28;20435;-77
2022/04/21 10:12:42;;;;;;;10.73;9.97;;;;;;;;;;5097256;28;20465;-79
2022/04/21 10:15:11;;;;;;;11.00;10.10;;;;;;;;;;5098197;28;20502;-79
2022/04/21 10:17:38;;;;;;;9.87;9.07;;;;;;;;;;5098375;28;21011;-79
2022/04/21 10:20:06;;;;;;;10.67;9.87;;;;;;;;;;5097545;28;20998;-80
2022/04/21 10:22:34;;;;;;;9.03;8.33;;;;;;;;;;5098310;28;20435;-81
2022/04/21 10:25:03;;;;;;;9.40;8.70;;;;;;;;;;5100811;28;20444;-78
2022/04/21 10:27:37;;;;;;;8.97;8.37;;;;;;;;;;5100653;28;20522;-79
2022/04/21 10:30:11;;;;;;;9.13;8.43;;;;;;;;;;5099009;28;20483;-80
2022/04/21 10:32:50;;;;;;;8.90;8.30;;;;;;;;;;5098912;28;20455;-77
2022/04/21 10:35:36;;;;;;;8.73;8.13;;;;;;;;;;5098604;28;20463;-79
2022/04/21 10:38:18;;;;;;;8.70;8.10;;;;;;;;;;5097869;28;20782;-79
2022/04/21 10:40:55;;;;;;;9.33;8.53;;;;;;;;;;5097247;28;20444;-80
2022/04/21 10:43:22;;;;;;;8.97;8.27;;;;;;;;;;5097120;28;20458;-79
2022/04/21 10:46:03;;;;;;;9.60;8.63;;;;;;;;;;5098924;28;20452;-79
2022/04/21 10:48:41;;;;;;;9.13;8.10;;;;;;;;;;5099427;28;20505;-80
2022/04/21 10:51:09;;;;;;;8.90;8.00;;;;;;;;;;5100170;28;20478;-80
2022/04/21 10:59:25;;;;;;;7.30;6.60;;;;;;;;;;5098983;28;20436;-80
2022/04/21 11:01:55;;;;;;;9.63;8.03;;;;;;;;;;5098719;28;20435;-79
2022/04/21 11:04:25;;;;;;;8.60;7.90;;;;;;;;;;5099253;28;20428;-79
2022/04/21 11:06:54;;;;;;;7.27;6.67;;;;;;;;;;5097974;28;20463;-79
2022/04/21 11:09:40;;;;;;;8.77;7.97;;;;;;;;;;5103224;28;20487;-79
2022/04/21 11:12:08;;;;;;;6.50;6.10;;;;;;;;;;5104221;28;20444;-79
2022/04/21 11:14:36;;;;;;;8.10;7.47;;;;;;;;;;5103202;28;20447;-79
2022/04/21 11:17:04;;;;;;;6.67;6.17;;;;;;;;;;5103780;28;20464;-77
2022/04/21 11:19:33;;;;;;;5.80;5.50;;;;;;;;;;5100657;28;20811;-78
2022/04/21 11:22:01;;;;;;;6.20;5.70;;;;;;;;;;5095685;28;20554;-78
2022/04/21 11:24:28;;;;;;;6.27;5.83;;;;;;;;;;5095349;28;20542;-79
2022/04/21 11:26:56;;;;;;;5.83;5.43;;;;;;;;;;5085220;28;20471;-78
2022/04/21 11:29:23;;;;;;;5.80;5.40;;;;;;;;;;5083197;28;20481;-77
2022/04/21 11:31:50;;;;;;;6.00;5.60;;;;;;;;;;5090860;28;20441;-80
2022/04/21 11:34:22;;;;;;;5.10;4.70;;;;;;;;;;5092849;28;20451;-79
2022/04/21 11:36:53;;;;;;;5.20;4.90;;;;;;;;;;5108908;28;20460;-76
2022/04/21 11:39:21;;;;;;;5.40;4.60;;;;;;;;;;5104227;28;20442;-77
2022/04/21 11:41:48;;;;;;;4.73;4.43;;;;;;;;;;5094424;28;20486;-80
2022/04/21 11:44:22;;;;;;;4.70;4.40;;;;;;;;;;5101719;28;20448;-78
2022/04/21 11:46:49;;;;;;;4.33;4.13;;;;;;;;;;5102680;28;20523;-80
2022/04/21 11:49:16;;;;;;;4.07;3.87;;;;;;;;;;5105605;28;20479;-77
2022/04/21 11:51:44;;;;;;;4.33;3.93;;;;;;;;;;5109124;28;20604;-79
2022/04/21 11:54:13;;;;;;;3.60;3.40;;;;;;;;;;5093846;28;21110;-81
2022/04/21 11:56:40;;;;;;;3.20;3.03;;;;;;;;;;5087628;28;20476;-79
2022/04/21 11:59:08;;;;;;;3.40;3.20;;;;;;;;;;5087333;28;20500;-79
2022/04/21 12:07:18;;;;;;;3.20;3.00;;;;;;;;;;5052426;28;21008;-78
2022/04/21 12:09:48;;;;;;;2.90;2.70;;;;;;;;;;5084721;28;20483;-80
2022/04/21 12:12:16;;;;;;;2.70;2.60;;;;;;;;;;5098009;28;20459;-79
2022/04/21 12:14:44;;;;;;;3.37;2.50;;;;;;;;;;5090260;28;20451;-79
2022/04/21 12:17:12;;;;;;;2.63;2.53;;;;;;;;;;5078799;28;20440;-78
2022/04/21 12:19:39;;;;;;;3.17;2.60;;;;;;;;;;5081223;28;20472;-80
2022/04/21 12:22:07;;;;;;;3.10;2.50;;;;;;;;;;5080946;28;21027;-80
2022/04/21 12:24:36;;;;;;;3.63;3.43;;;;;;;;;;5081791;28;20445;-79
2022/04/21 12:27:05;;;;;;;4.23;2.63;;;;;;;;;;5084575;28;20441;-78
2022/04/21 12:29:32;;;;;;;5.23;2.93;;;;;;;;;;5101763;28;20467;-80
2022/04/21 12:32:02;;;;;;;2.77;2.53;;;;;;;;;;5100229;28;20455;-78
2022/04/21 12:34:30;;;;;;;2.73;2.63;;;;;;;;;;5099641;28;20444;-80
2022/04/21 12:36:58;;;;;;;3.67;3.47;;;;;;;;;;5100618;28;20470;-79
2022/04/21 12:39:26;;;;;;;3.37;3.17;;;;;;;;;;5095359;28;20442;-79
2022/04/21 12:41:54;;;;;;;3.00;2.80;;;;;;;;;;5098745;28;20943;-79
2022/04/21 12:44:25;;;;;;;2.30;2.10;;;;;;;;;;5097777;28;20542;-79
2022/04/21 12:46:59;;;;;;;3.27;3.03;;;;;;;;;;5098414;28;20479;-80
2022/04/21 12:49:26;;;;;;;3.70;3.30;;;;;;;;;;5098382;28;20483;-78
2022/04/21 12:51:56;;;;;;;2.77;2.57;;;;;;;;;;5097951;28;20439;-78
2022/04/21 12:54:27;;;;;;;3.10;2.90;;;;;;;;;;5095945;28;20863;-80
2022/04/21 12:56:55;;;;;;;3.13;2.93;;;;;;;;;;5094014;28;20468;-79
2022/04/21 12:59:24;;;;;;;4.30;2.87;;;;;;;;;;5096357;28;20444;-80
2022/04/21 13:01:51;;;;;;;2.43;2.33;;;;;;;;;;5097188;28;20521;-79
2022/04/21 13:04:18;;;;;;;3.03;2.83;;;;;;;;;;5098086;28;20511;-82
2022/04/21 13:06:45;;;;;;;3.03;2.83;;;;;;;;;;5102258;28;20467;-79
2022/04/21 13:09:12;;;;;;;2.60;2.40;;;;;;;;;;5096217;28;20534;-80
2022/04/21 13:11:39;;;;;;;2.47;2.37;;;;;;;;;;5099830;28;20440;-79
2022/04/21 13:14:06;;;;;;;2.37;2.17;;;;;;;;;;5096475;28;20452;-78
2022/04/21 13:16:35;;;;;;;2.63;2.43;;;;;;;;;;5114013;28;20528;-79
2022/04/21 13:19:02;;;;;;;3.27;2.70;;;;;;;;;;5101901;28;20492;-78
2022/04/21 13:24:14;;;;;;;3.50;3.20;;;;;;;;;;5093938;28;20930;-79
2022/04/21 13:26:41;;;;;;;3.33;3.03;;;;;;;;;;5093270;28;20483;-76
2022/04/21 13:29:08;;;;;;;3.30;3.10;;;;;;;;;;5089182;28;20487;-77
2022/04/21 13:34:21;;;;;;;3.13;2.93;;;;;;;;;;5076548;28;20502;-79
2022/04/21 13:36:48;;;;;;;3.30;3.10;;;;;;;;;;5079366;28;20476;-78
2022/04/21 13:39:15;;;;;;;3.27;2.97;;;;;;;;;;5089263;28;20448;-78
2022/04/21 13:41:43;;;;;;;2.57;2.37;;;;;;;;;;5086620;28;20444;-78
2022/04/21 13:44:10;;;;;;;3.40;3.20;;;;;;;;;;5083718;28;20444;-77
2022/04/21 13:46:38;;;;;;;3.00;2.77;;;;;;;;;;5085685;28;20465;-77
2022/04/21 13:49:05;;;;;;;7.40;5.20;;;;;;;;;;5084073;28;20433;-76
2022/04/21 13:51:33;;;;;;;3.37;2.90;;;;;;;;;;5085044;28;20441;-78
2022/04/21 13:54:00;;;;;;;3.37;3.07;;;;;;;;;;5084258;28;20449;-78
2022/04/21 13:56:27;;;;;;;3.90;3.60;;;;;;;;;;5080667;28;20480;-79
2022/04/21 13:58:54;;;;;;;3.20;3.00;;;;;;;;;;5083623;28;20511;-79
2022/04/21 14:01:22;;;;;;;3.37;3.07;;;;;;;;;;5094658;28;20441;-78
2022/04/21 14:03:50;;;;;;;2.83;2.63;;;;;;;;;;5096796;28;20488;-79
2022/04/21 14:06:17;;;;;;;3.10;2.90;;;;;;;;;;5100911;28;21212;-81
2022/04/21 14:08:47;;;;;;;2.60;2.50;;;;;;;;;;5099753;28;21130;-80
2022/04/21 14:11:14;;;;;;;3.43;3.13;;;;;;;;;;5100199;28;20479;-80
2022/04/21 14:13:42;;;;;;;3.77;3.57;;;;;;;;;;5099741;28;20444;-80
2022/04/21 14:16:09;;;;;;;3.60;3.40;;;;;;;;;;5099859;28;20474;-82
2022/04/21 14:18:36;;;;;;;3.50;3.20;;;;;;;;;;5099623;28;20432;-82
2022/04/21 14:21:06;;;;;;;9.33;3.80;;;;;;;;;;5099311;28;20452;-81
2022/04/21 14:23:35;;;;;;;7.73;3.30;;;;;;;;;;5098798;28;20574;-81
2022/04/21 14:26:03;;;;;;;3.00;2.80;;;;;;;;;;5099484;28;21067;-80
2022/04/21 14:28:30;;;;;;;2.97;2.77;;;;;;;;;;5099363;28;20436;-79
2022/04/21 14:30:57;;;;;;;3.20;3.00;;;;;;;;;;5099833;28;20479;-81
2022/04/21 14:33:25;;;;;;;3.10;2.90;;;;;;;;;;5099258;28;20458;-80
2022/04/21 14:35:52;;;;;;;2.90;2.70;;;;;;;;;;5099739;28;20466;-78
2022/04/21 14:44:06;;;;;;;3.10;2.90;;;;;;;;;;5099391;28;20503;-81
2022/04/21 14:46:34;;;;;;;7.57;2.87;;;;;;;;;;5092246;28;20493;-81
2022/04/21 14:49:01;;;;;;;3.27;3.07;;;;;;;;;;5092422;28;20445;-80
2022/04/21 14:51:29;;;;;;;2.97;2.77;;;;;;;;;;5098366;28;20482;-80
2022/04/21 14:53:57;;;;;;;3.40;3.10;;;;;;;;;;5098787;28;20440;-79
2022/04/21 14:56:25;;;;;;;3.30;2.60;;;;;;;;;;5099610;28;20452;-80
2022/04/21 14:58:52;;;;;;;2.63;2.43;;;;;;;;;;5100013;28;20439;-79
2022/04/21 15:01:19;;;;;;;3.67;3.47;;;;;;;;;;5102215;28;20447;-80
2022/04/21 15:03:46;;;;;;;4.40;2.40;;;;;;;;;;5103493;28;20446;-80
2022/04/21 15:06:13;;;;;;;2.60;2.30;;;;;;;;;;5102386;28;20463;-80
2022/04/21 15:08:40;;;;;;;2.20;2.10;;;;;;;;;;5101427;28;20439;-79
2022/04/21 15:11:09;;;;;;;2.73;2.33;;;;;;;;;;5100219;28;20479;-79
2022/04/21 15:13:36;;;;;;;2.40;2.20;;;;;;;;;;5099792;28;20444;-80
2022/04/21 15:16:03;;;;;;;2.80;2.33;;;;;;;;;;5100408;28;20464;-79
2022/04/21 15:18:30;;;;;;;3.13;2.43;;;;;;;;;;5097831;28;20439;-80
2022/04/21 15:20:57;;;;;;;2.80;2.60;;;;;;;;;;5096963;28;20926;-79
2022/04/21 15:23:24;;;;;;;6.07;2.53;;;;;;;;;;5097457;28;20458;-78
2022/04/21 15:25:53;;;;;;;2.40;2.30;;;;;;;;;;5100855;28;20479;-79
2022/04/21 15:28:21;;;;;;;2.67;2.47;;;;;;;;;;5101926;28;20858;-84
2022/04/21 15:30:49;;;;;;;2.30;2.10;;;;;;;;;;5101626;28;20472;-81
2022/04/21 15:33:16;;;;;;;2.43;2.33;;;;;;;;;;5098739;28;20467;-83
2022/04/21 15:35:44;;;;;;;2.40;2.20;;;;;;;;;;5099935;28;20973;-81
2022/04/21 15:38:14;;;;;;;3.07;2.13;;;;;;;;;;5097030;28;20951;-79
2022/04/21 15:40:41;;;;;;;3.20;2.30;;;;;;;;;;5094435;28;20941;-78
2022/04/21 15:43:09;;;;;;;2.50;2.30;;;;;;;;;;5094105;28;20439;-77
2022/04/21 15:45:37;;;;;;;4.07;2.57;;;;;;;;;;5094159;28;20974;-79